Terminal Aerodrome Forecast
Issued by NWS Jackson, KY

Home | Current Version | Previous Version | Text Only | Print | Product List | Glossary On
Versions: 1 2 3 4 5 6 7 8 9 10 11 12 13 14 15
000
FTUS43 KJKL 261133
TAFLOZ
TAF
KLOZ 261133Z 2612/2712 VRB04KT P6SM BKN050 BKN100
     FM261300 23011G19KT 6SM -SHRA VCTS BKN050CB BKN150
     FM261700 26010G20KT 5SM -RA OVC020
     FM262100 32009G15KT 3SM -RA BR OVC009
     FM270400 35006KT 6SM -RA SCT010 BKN025
     FM270800 01005KT P6SM SCT025 BKN050=

USA.gov is the U.S. government's official web portal to all federal, state and local government web resources and services.